Time;durP1;ratioP1;P1;durP2;ratioP2;P2;SDS_P1;SDS_P2;PMS_P1;PMS_P2;Temp;Humidity;BMP_temperature;BMP_pressure;BME280_temperature;BME280_humidity;BME280_pressure;Samples;Min_cycle;Max_cycle;Signal;HPM_P1;HPM_P2
2023/08/30 00:01:21;;;;;;;;;;;18.10;83.40;;;;;;5060509;28;19991;-79
2023/08/30 00:03:48;;;;;;;;;;;18.10;83.40;;;;;;5056088;28;19980;-80
2023/08/30 00:06:15;;;;;;;;;;;18.00;83.30;;;;;;5059295;28;20540;-79
2023/08/30 00:08:42;;;;;;;;;;;18.00;83.40;;;;;;5060881;28;20050;-79
2023/08/30 00:11:08;;;;;;;;;;;18.00;83.40;;;;;;5061479;28;19975;-79
2023/08/30 00:13:35;;;;;;;;;;;18.00;83.30;;;;;;5058852;28;19976;-79
2023/08/30 00:16:03;;;;;;;;;;;17.90;83.30;;;;;;5062355;28;20380;-80
2023/08/30 00:18:30;;;;;;;;;;;17.90;83.30;;;;;;5060970;28;19975;-79
2023/08/30 00:20:57;;;;;;;;;;;18.00;83.40;;;;;;5060700;28;19975;-79
2023/08/30 00:23:24;;;;;;;;;;;17.90;83.30;;;;;;5056521;28;20630;-79
2023/08/30 00:25:50;;;;;;;;;;;17.90;83.40;;;;;;5058719;28;20497;-79
2023/08/30 00:28:17;;;;;;;;;;;17.90;83.40;;;;;;5062387;28;19996;-79
2023/08/30 00:30:43;;;;;;;;;;;17.90;83.40;;;;;;5060320;28;19999;-79
2023/08/30 00:33:11;;;;;;;;;;;17.90;83.40;;;;;;5056690;28;19991;-79
2023/08/30 00:35:38;;;;;;;;;;;17.90;83.40;;;;;;5056594;28;19987;-82
2023/08/30 00:38:04;;;;;;;;;;;17.90;83.50;;;;;;5058393;28;19991;-79
2023/08/30 00:40:38;;;;;;;;;;;17.90;83.50;;;;;;5055632;28;19983;-78
2023/08/30 00:43:04;;;;;;;;;;;17.80;83.50;;;;;;5052878;28;19976;-79
2023/08/30 00:45:31;;;;;;;;;;;17.80;83.50;;;;;;5056387;28;20002;-79
2023/08/30 00:47:57;;;;;;;;;;;17.80;83.50;;;;;;5058014;28;19999;-79
2023/08/30 00:50:25;;;;;;;;;;;17.80;84.30;;;;;;5056794;28;19995;-79
2023/08/30 00:52:52;;;;;;;;;;;17.80;83.60;;;;;;5057453;28;19976;-80
2023/08/30 00:55:18;;;;;;;;;;;17.80;83.60;;;;;;5061359;28;19979;-79
2023/08/30 00:57:45;;;;;;;;;;;17.80;83.60;;;;;;5060271;28;19991;-79
2023/08/30 01:00:12;;;;;;;;;;;17.80;83.60;;;;;;5058510;28;19986;-80
2023/08/30 01:02:39;;;;;;;;;;;17.80;84.40;;;;;;5059220;28;20371;-80
2023/08/30 01:05:06;;;;;;;;;;;17.80;83.60;;;;;;5058367;28;20637;-79
2023/08/30 01:07:34;;;;;;;;;;;17.70;83.60;;;;;;5058524;28;19991;-79
2023/08/30 01:10:00;;;;;;;;;;;17.80;84.50;;;;;;5056561;28;20004;-79
2023/08/30 01:12:30;;;;;;;;;;;17.70;83.70;;;;;;5057772;28;19975;-80
2023/08/30 01:14:58;;;;;;;;;;;17.70;83.70;;;;;;5063047;28;19979;-79
2023/08/30 01:20:45;;;;;;;;;;;17.70;83.80;;;;;;5058984;28;20134;-79
2023/08/30 01:23:18;;;;;;;;;;;17.70;83.80;;;;;;5052518;28;19976;-79
2023/08/30 01:25:48;;;;;;;;;;;17.70;83.90;;;;;;5060541;28;19979;-79
2023/08/30 01:28:17;;;;;;;;;;;17.70;83.90;;;;;;5061237;28;20002;-79
2023/08/30 01:30:45;;;;;;;;;;;17.60;83.90;;;;;;5057510;28;20003;-79
2023/08/30 01:33:12;;;;;;;;;;;17.60;84.00;;;;;;5050423;28;19979;-79
2023/08/30 01:35:40;;;;;;;;;;;17.60;84.00;;;;;;5061170;28;19983;-79
2023/08/30 01:38:07;;;;;;;;;;;17.60;83.90;;;;;;5054842;28;20022;-78
2023/08/30 01:40:37;;;;;;;;;;;17.60;84.00;;;;;;5056870;28;20499;-79
2023/08/30 01:43:05;;;;;;;;;;;17.60;84.10;;;;;;5057426;28;19986;-78
2023/08/30 01:45:34;;;;;;;;;;;17.60;84.00;;;;;;5055752;28;20026;-80
2023/08/30 01:48:00;;;;;;;;;;;17.60;84.00;;;;;;5056427;28;20489;-80
2023/08/30 01:50:27;;;;;;;;;;;17.60;84.00;;;;;;5062521;28;20007;-80
2023/08/30 01:52:54;;;;;;;;;;;17.50;84.70;;;;;;5062970;28;19983;-80
2023/08/30 01:55:22;;;;;;;;;;;17.50;84.00;;;;;;5063529;28;19975;-80
2023/08/30 01:57:49;;;;;;;;;;;17.50;84.00;;;;;;5068907;28;20477;-79
2023/08/30 02:00:15;;;;;;;;;;;17.50;84.00;;;;;;5069104;28;19988;-80
2023/08/30 02:02:43;;;;;;;;;;;17.50;84.10;;;;;;5064461;28;19992;-80
2023/08/30 02:05:12;;;;;;;;;;;17.50;84.00;;;;;;5064891;28;19971;-80
2023/08/30 02:07:44;;;;;;;;;;;17.50;84.20;;;;;;5064918;28;20090;-79
2023/08/30 02:10:16;;;;;;;;;;;17.50;84.20;;;;;;5063041;28;19996;-79
2023/08/30 02:12:44;;;;;;;;;;;17.50;84.10;;;;;;5068014;28;19991;-79
2023/08/30 02:15:12;;;;;;;;;;;17.40;84.20;;;;;;5068261;28;19991;-82
2023/08/30 02:17:38;;;;;;;;;;;17.40;84.20;;;;;;5063085;28;19999;-80
2023/08/30 02:20:07;;;;;;;;;;;17.40;84.20;;;;;;5065326;28;20679;-79
2023/08/30 02:22:34;;;;;;;;;;;17.40;84.30;;;;;;5050128;28;19987;-79
2023/08/30 02:25:04;;;;;;;;;;;17.40;84.30;;;;;;5047501;28;19980;-78
2023/08/30 02:27:31;;;;;;;;;;;17.40;84.40;;;;;;5045176;28;20086;-79
2023/08/30 02:29:57;;;;;;;;;;;17.40;84.40;;;;;;5047566;28;19992;-79
2023/08/30 02:32:24;;;;;;;;;;;17.40;84.50;;;;;;5044425;28;20002;-79
2023/08/30 02:34:51;;;;;;;;;;;17.30;85.20;;;;;;5044776;28;19976;-79
2023/08/30 02:37:19;;;;;;;;;;;17.40;84.60;;;;;;5042702;28;20789;-79
2023/08/30 02:39:46;;;;;;;;;;;17.30;84.50;;;;;;5045426;28;19976;-81
2023/08/30 02:42:12;;;;;;;;;;;17.30;84.60;;;;;;5046303;28;19976;-80
2023/08/30 02:44:39;;;;;;;;;;;17.30;84.60;;;;;;5044289;28;19980;-79
2023/08/30 02:47:06;;;;;;;;;;;17.30;84.60;;;;;;5042508;28;19999;-79
2023/08/30 02:49:32;;;;;;;;;;;17.30;84.70;;;;;;5046562;28;19991;-81
2023/08/30 02:51:59;;;;;;;;;;;17.30;84.80;;;;;;5044576;28;20004;-78
2023/08/30 02:54:27;;;;;;;;;;;17.30;84.90;;;;;;5043564;28;20088;-79
2023/08/30 02:56:53;;;;;;;;;;;17.30;84.90;;;;;;5044807;28;20002;-79
2023/08/30 02:59:20;;;;;;;;;;;17.30;85.00;;;;;;5044502;28;19975;-80
2023/08/30 03:01:47;;;;;;;;;;;17.20;85.00;;;;;;5043336;28;19995;-79
2023/08/30 03:04:14;;;;;;;;;;;17.20;85.00;;;;;;5043419;28;20013;-78
2023/08/30 03:06:40;;;;;;;;;;;17.20;85.60;;;;;;5044281;28;19999;-80
2023/08/30 03:09:07;;;;;;;;;;;17.20;85.10;;;;;;5043702;28;19982;-79
2023/08/30 03:11:35;;;;;;;;;;;17.20;85.10;;;;;;5043448;28;19991;-80
2023/08/30 03:14:02;;;;;;;;;;;17.20;85.10;;;;;;5043358;28;19987;-80
2023/08/30 03:16:28;;;;;;;;;;;17.20;85.20;;;;;;5042187;28;19995;-79
2023/08/30 03:18:55;;;;;;;;;;;17.20;85.20;;;;;;5040619;28;19979;-79
2023/08/30 03:21:22;;;;;;;;;;;17.20;85.20;;;;;;5045069;28;19975;-79
2023/08/30 03:23:48;;;;;;;;;;;17.20;85.20;;;;;;5058881;28;19979;-78
2023/08/30 03:26:15;;;;;;;;;;;17.20;85.20;;;;;;5061878;28;19990;-79
2023/08/30 03:28:44;;;;;;;;;;;17.10;86.00;;;;;;5054964;28;20033;-79
2023/08/30 03:31:14;;;;;;;;;;;17.10;85.20;;;;;;5057249;28;19998;-79
2023/08/30 03:33:42;;;;;;;;;;;17.10;85.20;;;;;;5053972;28;19975;-79
2023/08/30 03:36:09;;;;;;;;;;;17.10;85.30;;;;;;5053301;28;20015;-78
2023/08/30 03:38:36;;;;;;;;;;;17.10;85.30;;;;;;5056895;28;21200;-79
2023/08/30 03:41:03;;;;;;;;;;;17.10;85.30;;;;;;5059831;28;19976;-79
2023/08/30 03:43:30;;;;;;;;;;;17.10;85.40;;;;;;5061689;28;20445;-79
2023/08/30 03:45:58;;;;;;;;;;;17.10;85.50;;;;;;5063120;28;19991;-79
2023/08/30 03:48:24;;;;;;;;;;;17.10;85.50;;;;;;5057992;28;19996;-79
2023/08/30 03:50:51;;;;;;;;;;;17.00;85.40;;;;;;5060190;28;20465;-79
2023/08/30 03:53:17;;;;;;;;;;;17.10;85.50;;;;;;5062299;28;20716;-79
2023/08/30 03:55:44;;;;;;;;;;;17.00;85.50;;;;;;5061445;28;20002;-79
2023/08/30 03:58:10;;;;;;;;;;;17.00;85.50;;;;;;5057397;28;19995;-80
2023/08/30 04:00:37;;;;;;;;;;;17.10;85.60;;;;;;5054654;28;19992;-80
2023/08/30 04:03:05;;;;;;;;;;;17.00;85.70;;;;;;5062035;28;19975;-80
2023/08/30 04:05:33;;;;;;;;;;;17.00;85.60;;;;;;5062170;28;19976;-79
2023/08/30 04:08:00;;;;;;;;;;;17.00;85.70;;;;;;5061433;28;20471;-79
2023/08/30 04:10:26;;;;;;;;;;;17.00;85.60;;;;;;5055810;28;19992;-80
2023/08/30 04:12:53;;;;;;;;;;;17.00;85.70;;;;;;5055060;28;19983;-79
2023/08/30 04:15:19;;;;;;;;;;;17.00;85.70;;;;;;5054781;28;20472;-80
2023/08/30 04:17:46;;;;;;;;;;;17.00;85.70;;;;;;5059980;28;20018;-80
2023/08/30 04:20:14;;;;;;;;;;;16.90;85.80;;;;;;5060060;28;19980;-79
2023/08/30 04:22:40;;;;;;;;;;;16.90;85.80;;;;;;5053880;28;19976;-79
2023/08/30 04:25:09;;;;;;;;;;;16.90;85.80;;;;;;5059768;28;19987;-78
2023/08/30 04:27:35;;;;;;;;;;;17.00;85.90;;;;;;5060158;28;20389;-79
2023/08/30 04:30:02;;;;;;;;;;;17.00;85.90;;;;;;5056162;28;19995;-79
2023/08/30 04:32:29;;;;;;;;;;;17.00;85.90;;;;;;5054072;28;20515;-79
2023/08/30 04:34:55;;;;;;;;;;;16.90;85.90;;;;;;5055759;28;19979;-79
2023/08/30 04:37:23;;;;;;;;;;;16.90;85.90;;;;;;5057503;28;19992;-79
2023/08/30 04:39:50;;;;;;;;;;;16.90;86.00;;;;;;5055734;28;19976;-78
2023/08/30 04:42:17;;;;;;;;;;;16.90;86.00;;;;;;5055168;28;20389;-79
2023/08/30 04:44:43;;;;;;;;;;;16.90;86.00;;;;;;5063365;28;20696;-81
2023/08/30 04:47:10;;;;;;;;;;;16.90;86.00;;;;;;5057171;28;19999;-78
2023/08/30 04:49:36;;;;;;;;;;;16.80;85.90;;;;;;5061009;28;20462;-79
2023/08/30 04:52:03;;;;;;;;;;;16.90;86.00;;;;;;5062288;28;19976;-78
2023/08/30 04:54:31;;;;;;;;;;;16.90;86.10;;;;;;5057640;28;19981;-77
2023/08/30 04:56:57;;;;;;;;;;;16.80;86.30;;;;;;5058344;28;20006;-81
2023/08/30 04:59:24;;;;;;;;;;;16.80;86.90;;;;;;5063066;28;19982;-80
2023/08/30 05:01:51;;;;;;;;;;;16.70;87.10;;;;;;5055781;28;20010;-81
2023/08/30 05:04:18;;;;;;;;;;;16.70;87.20;;;;;;5066568;28;19980;-81
2023/08/30 05:06:44;;;;;;;;;;;16.70;87.20;;;;;;5059877;28;19995;-81
2023/08/30 05:09:11;;;;;;;;;;;16.70;87.10;;;;;;5062627;28;19987;-81
2023/08/30 05:11:39;;;;;;;;;;;16.70;87.00;;;;;;5060435;28;19992;-81
2023/08/30 05:14:05;;;;;;;;;;;16.70;87.00;;;;;;5062400;28;19976;-81
2023/08/30 05:16:32;;;;;;;;;;;16.70;86.90;;;;;;5061675;28;20381;-81
2023/08/30 05:18:58;;;;;;;;;;;16.70;86.80;;;;;;5063671;28;19975;-81
2023/08/30 05:21:25;;;;;;;;;;;16.70;86.90;;;;;;5068882;28;20162;-81
2023/08/30 05:23:51;;;;;;;;;;;16.70;86.80;;;;;;5065053;28;20365;-82
2023/08/30 05:26:19;;;;;;;;;;;16.70;86.80;;;;;;5066747;28;19975;-81
2023/08/30 05:28:47;;;;;;;;;;;16.70;86.80;;;;;;5067719;28;19980;-81
2023/08/30 05:31:13;;;;;;;;;;;16.70;86.80;;;;;;5064261;28;20022;-81
2023/08/30 05:33:40;;;;;;;;;;;16.70;86.80;;;;;;5067450;28;19979;-81
2023/08/30 05:36:06;;;;;;;;;;;16.70;86.80;;;;;;5066685;28;19987;-76
2023/08/30 05:38:33;;;;;;;;;;;16.70;86.80;;;;;;5068134;28;19980;-81
2023/08/30 05:41:00;;;;;;;;;;;16.70;86.90;;;;;;5070239;28;19975;-82
2023/08/30 05:43:26;;;;;;;;;;;16.70;86.90;;;;;;5066899;28;19979;-82
2023/08/30 05:45:54;;;;;;;;;;;16.60;86.80;;;;;;5068366;28;19991;-81
2023/08/30 05:48:21;;;;;;;;;;;16.70;86.90;;;;;;5066469;28;20606;-82
2023/08/30 05:50:47;;;;;;;;;;;16.70;87.00;;;;;;5064363;28;19999;-82
2023/08/30 05:53:14;;;;;;;;;;;16.60;86.90;;;;;;5064696;28;20360;-82
2023/08/30 05:55:40;;;;;;;;;;;16.60;86.90;;;;;;5069244;28;19979;-81
2023/08/30 05:58:07;;;;;;;;;;;16.70;87.00;;;;;;5068872;28;19995;-81
2023/08/30 06:00:33;;;;;;;;;;;16.60;87.00;;;;;;5066236;28;20002;-81
2023/08/30 06:03:02;;;;;;;;;;;16.60;87.00;;;;;;5060413;28;20056;-83
2023/08/30 06:05:29;;;;;;;;;;;16.60;87.00;;;;;;5062647;28;20015;-82
2023/08/30 06:07:55;;;;;;;;;;;16.60;87.00;;;;;;5070194;28;19992;-82
2023/08/30 06:10:23;;;;;;;;;;;16.70;87.10;;;;;;5063975;28;20539;-81
2023/08/30 06:12:49;;;;;;;;;;;16.70;87.00;;;;;;5057694;28;21105;-81
2023/08/30 06:15:16;;;;;;;;;;;16.60;87.00;;;;;;5066903;28;19982;-82
2023/08/30 06:17:43;;;;;;;;;;;16.70;87.10;;;;;;5068488;28;20018;-81
2023/08/30 06:20:11;;;;;;;;;;;16.70;87.10;;;;;;5070322;28;19980;-81
2023/08/30 06:22:38;;;;;;;;;;;16.60;87.10;;;;;;5064229;28;19975;-82
2023/08/30 06:25:06;;;;;;;;;;;16.70;87.10;;;;;;5067999;28;20380;-83
2023/08/30 06:27:33;;;;;;;;;;;16.60;87.00;;;;;;5069904;28;19991;-82
2023/08/30 06:29:59;;;;;;;;;;;16.70;87.00;;;;;;5065043;28;19975;-82
2023/08/30 06:32:26;;;;;;;;;;;16.70;87.00;;;;;;5062512;28;19996;-82
2023/08/30 06:34:52;;;;;;;;;;;16.70;87.00;;;;;;5062970;28;19975;-81
2023/08/30 06:37:24;;;;;;;;;;;16.70;87.00;;;;;;5065348;28;19991;-82
2023/08/30 06:39:50;;;;;;;;;;;16.70;86.90;;;;;;5065787;28;20015;-82
2023/08/30 06:42:17;;;;;;;;;;;16.60;87.70;;;;;;5066297;28;19975;-83
2023/08/30 06:44:43;;;;;;;;;;;16.70;86.90;;;;;;5066065;28;19976;-81
2023/08/30 06:47:10;;;;;;;;;;;16.70;86.90;;;;;;5063790;28;19992;-81
2023/08/30 06:49:36;;;;;;;;;;;16.70;86.80;;;;;;5064418;28;19971;-81
2023/08/30 06:52:04;;;;;;;;;;;16.70;86.80;;;;;;5068200;28;19991;-81
2023/08/30 06:54:34;;;;;;;;;;;16.70;86.90;;;;;;5067447;28;19983;-81
2023/08/30 06:57:01;;;;;;;;;;;16.70;86.90;;;;;;5063363;28;20011;-82
2023/08/30 06:59:28;;;;;;;;;;;16.70;86.80;;;;;;5061796;28;20129;-83
2023/08/30 07:01:54;;;;;;;;;;;16.70;86.80;;;;;;5061469;28;19991;-82
2023/08/30 07:04:21;;;;;;;;;;;16.70;86.80;;;;;;5066598;28;19980;-83
2023/08/30 07:06:48;;;;;;;;;;;16.70;86.70;;;;;;5072324;28;19995;-81
2023/08/30 07:09:16;;;;;;;;;;;16.80;86.80;;;;;;5062671;28;20019;-82
2023/08/30 07:11:45;;;;;;;;;;;16.70;86.70;;;;;;5063129;28;20002;-82
2023/08/30 07:14:12;;;;;;;;;;;16.70;86.70;;;;;;5064438;28;19976;-84
2023/08/30 07:16:38;;;;;;;;;;;16.70;86.70;;;;;;5065689;28;20423;-82
2023/08/30 07:19:05;;;;;;;;;;;16.80;86.70;;;;;;5064047;28;19987;-83
2023/08/30 07:21:32;;;;;;;;;;;16.70;86.70;;;;;;5068801;28;20029;-82
2023/08/30 07:23:59;;;;;;;;;;;16.80;86.80;;;;;;5066702;28;19971;-83
2023/08/30 07:26:27;;;;;;;;;;;16.80;86.70;;;;;;5068888;28;21263;-84
2023/08/30 07:29:04;;;;;;;;;;;16.70;86.70;;;;;;5066674;28;20406;-83
2023/08/30 07:31:31;;;;;;;;;;;16.90;86.80;;;;;;5060517;28;20002;-83
2023/08/30 07:34:00;;;;;;;;;;;16.80;86.70;;;;;;5063633;28;19975;-83
2023/08/30 07:36:28;;;;;;;;;;;16.80;86.70;;;;;;5054736;28;19991;-82
2023/08/30 07:38:55;;;;;;;;;;;16.80;86.60;;;;;;5062299;28;20376;-83
2023/08/30 07:41:21;;;;;;;;;;;16.80;86.60;;;;;;5060822;28;20524;-82
2023/08/30 07:43:48;;;;;;;;;;;16.80;86.60;;;;;;5060810;28;19975;-82
2023/08/30 07:46:15;;;;;;;;;;;16.80;86.60;;;;;;5063351;28;20002;-82
2023/08/30 07:48:42;;;;;;;;;;;16.80;86.60;;;;;;5061377;28;19979;-82
2023/08/30 07:51:09;;;;;;;;;;;16.80;86.60;;;;;;5060894;28;19992;-82
2023/08/30 07:53:35;;;;;;;;;;;16.90;86.70;;;;;;5061383;28;19982;-82
2023/08/30 07:56:02;;;;;;;;;;;16.90;86.70;;;;;;5063387;28;19976;-83
2023/08/30 07:58:28;;;;;;;;;;;16.90;86.70;;;;;;5062927;28;20036;-79
2023/08/30 08:00:55;;;;;;;;;;;16.90;86.70;;;;;;5057106;28;19995;-81
2023/08/30 08:03:22;;;;;;;;;;;16.90;86.70;;;;;;5063334;28;19975;-82
2023/08/30 08:05:49;;;;;;;;;;;16.90;86.70;;;;;;5059780;28;19987;-82
2023/08/30 08:08:16;;;;;;;;;;;16.90;86.60;;;;;;5063816;28;20002;-83
2023/08/30 08:10:43;;;;;;;;;;;17.00;86.70;;;;;;5066047;28;19976;-80
2023/08/30 08:13:09;;;;;;;;;;;17.00;86.60;;;;;;5059780;28;19980;-82
2023/08/30 08:15:36;;;;;;;;;;;17.00;86.60;;;;;;5062142;28;20375;-81
2023/08/30 08:18:02;;;;;;;;;;;17.00;86.50;;;;;;5058809;28;19999;-81
2023/08/30 08:20:31;;;;;;;;;;;17.00;86.40;;;;;;5060697;28;19991;-81
2023/08/30 08:22:57;;;;;;;;;;;17.10;86.40;;;;;;5062138;28;20011;-80
2023/08/30 08:25:24;;;;;;;;;;;17.00;86.40;;;;;;5065550;28;19975;-82
2023/08/30 08:27:50;;;;;;;;;;;17.10;86.40;;;;;;5060668;28;19991;-80
2023/08/30 08:30:17;;;;;;;;;;;17.10;86.30;;;;;;5059719;28;20395;-83
2023/08/30 08:32:46;;;;;;;;;;;17.10;86.20;;;;;;5060699;28;19999;-83
2023/08/30 08:35:12;;;;;;;;;;;17.20;86.20;;;;;;5055793;28;19979;-84
2023/08/30 08:37:40;;;;;;;;;;;17.20;86.10;;;;;;5061356;28;19995;-82
2023/08/30 08:40:09;;;;;;;;;;;17.20;86.00;;;;;;5050006;28;19976;-82
2023/08/30 08:42:36;;;;;;;;;;;17.20;85.90;;;;;;5063688;28;19979;-83
2023/08/30 08:45:03;;;;;;;;;;;17.20;85.80;;;;;;5065509;28;19980;-81
2023/08/30 08:47:30;;;;;;;;;;;17.30;85.80;;;;;;5064826;28;19999;-81
2023/08/30 08:49:57;;;;;;;;;;;17.30;85.80;;;;;;5068602;28;19997;-82
2023/08/30 08:52:24;;;;;;;;;;;17.30;85.70;;;;;;5061810;28;20473;-84
2023/08/30 08:54:52;;;;;;;;;;;17.40;85.60;;;;;;5066451;28;20060;-83
2023/08/30 08:57:20;;;;;;;;;;;17.40;85.50;;;;;;5066025;28;20043;-84
2023/08/30 08:59:46;;;;;;;;;;;17.50;85.30;;;;;;5063762;28;19979;-82
2023/08/30 09:02:14;;;;;;;;;;;17.50;85.20;;;;;;5065798;28;20014;-83
2023/08/30 09:04:41;;;;;;;;;;;17.50;85.00;;;;;;5066572;28;21700;-84
2023/08/30 09:07:08;;;;;;;;;;;17.50;84.90;;;;;;5066410;28;19998;-80
2023/08/30 09:09:35;;;;;;;;;;;17.50;84.70;;;;;;5067001;28;19975;-82
2023/08/30 09:12:03;;;;;;;;;;;17.60;84.70;;;;;;5067429;28;19992;-80
2023/08/30 09:14:30;;;;;;;;;;;17.70;84.70;;;;;;5068489;28;19971;-85
2023/08/30 09:16:57;;;;;;;;;;;17.70;84.60;;;;;;5072576;28;20056;-83
2023/08/30 09:19:24;;;;;;;;;;;17.70;84.50;;;;;;5066924;28;19975;-83
2023/08/30 09:21:53;;;;;;;;;;;17.80;84.40;;;;;;5061627;28;19983;-82
2023/08/30 09:24:20;;;;;;;;;;;17.70;84.30;;;;;;5060436;28;19971;-83
2023/08/30 09:26:48;;;;;;;;;;;17.80;84.40;;;;;;5064216;28;20078;-83
2023/08/30 09:29:17;;;;;;;;;;;17.80;84.40;;;;;;5064304;28;20001;-82
2023/08/30 09:31:44;;;;;;;;;;;17.80;84.30;;;;;;5065231;28;20038;-74
2023/08/30 09:34:11;;;;;;;;;;;17.90;84.30;;;;;;5062527;28;19998;-73
2023/08/30 09:36:38;;;;;;;;;;;17.90;84.30;;;;;;5061301;28;19995;-74
2023/08/30 09:39:05;;;;;;;;;;;17.90;84.30;;;;;;5065156;28;19985;-72
2023/08/30 09:41:32;;;;;;;;;;;17.90;84.20;;;;;;5060228;28;19976;-74
2023/08/30 09:43:59;;;;;;;;;;;17.90;83.90;;;;;;5060720;28;20614;-75
2023/08/30 09:46:28;;;;;;;;;;;18.00;83.80;;;;;;5063883;28;19991;-75
2023/08/30 09:48:55;;;;;;;;;;;18.00;83.60;;;;;;5059576;28;19979;-74
2023/08/30 09:51:22;;;;;;;;;;;18.10;83.60;;;;;;5063009;28;20002;-75
2023/08/30 09:53:50;;;;;;;;;;;18.10;83.50;;;;;;5059857;28;19979;-74
2023/08/30 09:56:16;;;;;;;;;;;18.10;83.50;;;;;;5060983;28;19975;-75
2023/08/30 09:58:43;;;;;;;;;;;18.10;83.40;;;;;;5066285;28;20536;-74
2023/08/30 10:01:10;;;;;;;;;;;18.20;83.30;;;;;;5065205;28;19995;-74
2023/08/30 10:03:38;;;;;;;;;;;18.20;83.20;;;;;;5064345;28;19975;-75
2023/08/30 10:06:05;;;;;;;;;;;18.20;83.20;;;;;;5063414;28;20032;-73
2023/08/30 10:08:34;;;;;;;;;;;18.30;83.60;;;;;;5060176;28;19995;-74
2023/08/30 10:11:01;;;;;;;;;;;18.30;83.30;;;;;;5061448;28;19985;-73
2023/08/30 10:13:29;;;;;;;;;;;18.30;83.20;;;;;;5062690;28;19991;-74
2023/08/30 10:15:59;;;;;;;;;;;18.40;82.80;;;;;;5061813;28;20006;-74
2023/08/30 10:18:28;;;;;;;;;;;18.40;82.30;;;;;;5061612;28;19992;-74
2023/08/30 10:20:57;;;;;;;;;;;18.50;82.10;;;;;;5064023;28;19979;-74
2023/08/30 10:23:24;;;;;;;;;;;18.50;82.10;;;;;;5066508;28;19975;-75
2023/08/30 10:25:52;;;;;;;;;;;18.60;82.50;;;;;;5058726;28;19979;-74
2023/08/30 10:28:20;;;;;;;;;;;18.60;81.60;;;;;;5065647;28;20014;-75
2023/08/30 10:30:47;;;;;;;;;;;18.70;81.70;;;;;;5058680;28;20551;-75
2023/08/30 10:33:14;;;;;;;;;;;18.70;81.40;;;;;;5065697;28;19999;-75
2023/08/30 10:35:48;;;;;;;;;;;18.80;80.90;;;;;;5065215;28;19979;-75
2023/08/30 10:38:25;;;;;;;;;;;18.80;80.80;;;;;;5064710;28;20060;-75
2023/08/30 10:40:51;;;;;;;;;;;18.90;80.60;;;;;;5064527;28;20075;-75
2023/08/30 10:43:28;;;;;;;;;;;18.90;80.60;;;;;;5064850;28;19975;-73
2023/08/30 10:45:59;;;;;;;;;;;19.00;80.40;;;;;;5064095;28;20003;-75
2023/08/30 10:48:34;;;;;;;;;;;19.10;80.30;;;;;;5063463;28;19995;-73
2023/08/30 10:51:04;;;;;;;;;;;19.10;79.90;;;;;;5057378;28;19986;-74
2023/08/30 10:53:32;;;;;;;;;;;19.20;79.40;;;;;;5064840;28;19991;-74
2023/08/30 10:56:08;;;;;;;;;;;19.20;79.10;;;;;;5064835;28;20018;-75
2023/08/30 10:58:41;;;;;;;;;;;19.30;79.00;;;;;;5065117;28;20425;-74
2023/08/30 11:01:10;;;;;;;;;;;19.40;78.60;;;;;;5056318;28;20007;-75
2023/08/30 11:03:36;;;;;;;;;;;19.40;78.50;;;;;;5065776;28;19978;-74
2023/08/30 11:06:03;;;;;;;;;;;19.50;78.50;;;;;;5061116;28;19979;-75
2023/08/30 11:08:30;;;;;;;;;;;19.50;78.10;;;;;;5057739;28;19991;-73
2023/08/30 11:11:03;;;;;;;;;;;19.60;78.00;;;;;;5063518;28;19979;-75
2023/08/30 11:13:30;;;;;;;;;;;19.70;78.00;;;;;;5066013;28;20141;-76
2023/08/30 11:16:00;;;;;;;;;;;19.70;77.90;;;;;;5060275;28;20380;-74
2023/08/30 11:18:27;;;;;;;;;;;19.80;77.90;;;;;;5060702;28;19991;-82
2023/08/30 11:20:54;;;;;;;;;;;19.90;77.50;;;;;;5065676;28;19979;-82
2023/08/30 11:23:21;;;;;;;;;;;19.90;77.30;;;;;;5062007;28;19982;-83
2023/08/30 11:25:50;;;;;;;;;;;20.00;77.40;;;;;;5059735;28;19976;-83
2023/08/30 11:28:23;;;;;;;;;;;20.00;77.20;;;;;;5060200;28;20080;-82
2023/08/30 11:30:51;;;;;;;;;;;20.10;77.40;;;;;;5057080;28;20124;-79
2023/08/30 11:33:18;;;;;;;;;;;20.10;76.70;;;;;;5053678;28;19992;-81
2023/08/30 11:35:44;;;;;;;;;;;20.20;76.70;;;;;;5056051;28;20040;-82
2023/08/30 11:38:11;;;;;;;;;;;20.20;76.20;;;;;;5059546;28;19992;-81
2023/08/30 11:40:38;;;;;;;;;;;20.30;76.10;;;;;;5061683;28;20021;-82
2023/08/30 11:43:04;;;;;;;;;;;20.30;75.70;;;;;;5062447;28;19979;-82
2023/08/30 11:45:34;;;;;;;;;;;20.40;75.90;;;;;;5059149;28;19992;-80
2023/08/30 11:48:01;;;;;;;;;;;20.40;75.90;;;;;;5058631;28;19992;-81
2023/08/30 11:50:27;;;;;;;;;;;20.50;75.60;;;;;;5059707;28;19994;-81
2023/08/30 11:52:54;;;;;;;;;;;20.40;75.10;;;;;;5059111;28;20006;-83
2023/08/30 11:55:21;;;;;;;;;;;20.50;75.40;;;;;;5062081;28;19983;-81
2023/08/30 11:57:49;;;;;;;;;;;20.50;74.50;;;;;;5057528;28;19995;-81
2023/08/30 12:00:19;;;;;;;;;;;20.50;74.50;;;;;;5063133;28;20353;-82
2023/08/30 12:02:47;;;;;;;;;;;20.60;74.50;;;;;;5057547;28;19984;-81
2023/08/30 12:08:05;;;;;;;;;;;20.70;73.90;;;;;;4997555;28;19999;-80
2023/08/30 12:10:34;;;;;;;;;;;20.80;74.00;;;;;;5058739;28;20420;-81
2023/08/30 12:13:27;;;;;;;;;;;20.80;73.40;;;;;;5059394;28;20023;-82
2023/08/30 12:18:40;;;;;;;;;;;20.80;72.70;;;;;;5085832;23;20189;-80
2023/08/30 12:24:14;;;;;;;;;;;21.00;72.70;;;;;;5056619;28;19986;-80
2023/08/30 12:29:34;;;;;;;;;;;21.10;72.10;;;;;;5043274;28;19985;-82
2023/08/30 12:32:02;;;;;;;;;;;21.20;72.50;;;;;;5061762;28;20101;-83
2023/08/30 12:34:59;;;;;;;;;;;21.20;72.50;;;;;;5063945;28;20607;-82
2023/08/30 12:37:27;;;;;;;;;;;21.20;72.10;;;;;;5051529;28;19999;-82
2023/08/30 12:39:53;;;;;;;;;;;21.30;71.10;;;;;;5044330;28;19980;-81
2023/08/30 12:42:20;;;;;;;;;;;21.40;71.30;;;;;;5041424;28;20377;-81
2023/08/30 12:44:47;;;;;;;;;;;21.40;70.70;;;;;;5040555;28;19980;-82
2023/08/30 12:47:14;;;;;;;;;;;21.50;70.30;;;;;;5041246;28;19992;-82
2023/08/30 12:49:40;;;;;;;;;;;21.60;69.80;;;;;;5044774;28;19981;-81
2023/08/30 12:52:07;;;;;;;;;;;21.60;69.40;;;;;;5044972;28;19994;-81
2023/08/30 14:37:07;;;;;;;;;;;23.60;56.60;;;;;;5056124;28;20029;-82
2023/08/30 14:39:33;;;;;;;;;;;23.80;57.50;;;;;;5073903;28;19998;-83
2023/08/30 14:42:00;;;;;;;;;;;24.00;57.90;;;;;;5078985;28;19990;-84
2023/08/30 14:44:27;;;;;;;;;;;24.20;58.10;;;;;;5079253;28;19975;-83
2023/08/30 14:46:54;;;;;;;;;;;24.30;58.10;;;;;;5063546;28;19998;-82
2023/08/30 14:49:20;;;;;;;;;;;24.30;58.10;;;;;;5064390;28;20002;-82
2023/08/30 14:51:47;;;;;;;;;;;24.50;58.00;;;;;;5061696;28;19975;-85
2023/08/30 14:54:15;;;;;;;;;;;24.50;58.00;;;;;;5061637;28;19976;-83
2023/08/30 14:56:41;;;;;;;;;;;24.50;58.20;;;;;;5061066;28;19983;-82
2023/08/30 14:59:08;;;;;;;;;;;24.60;58.50;;;;;;5062226;28;19995;-84
2023/08/30 15:01:34;;;;;;;;;;;24.60;58.60;;;;;;5059927;28;19999;-83
2023/08/30 15:04:01;;;;;;;;;;;24.60;58.10;;;;;;5062027;28;19979;-74
2023/08/30 15:06:28;;;;;;;;;;;24.70;58.30;;;;;;5061833;28;19980;-73
2023/08/30 15:08:54;;;;;;;;;;;24.70;58.40;;;;;;5063635;28;20000;-74
2023/08/30 15:11:22;;;;;;;;;;;24.70;58.30;;;;;;5062405;28;19981;-73
2023/08/30 15:13:49;;;;;;;;;;;24.70;58.90;;;;;;5062739;28;19976;-70
2023/08/30 15:16:15;;;;;;;;;;;24.60;58.00;;;;;;5062172;28;19995;-70
2023/08/30 15:18:42;;;;;;;;;;;24.70;57.80;;;;;;5062295;28;19991;-69
2023/08/30 15:21:08;;;;;;;;;;;24.70;57.70;;;;;;5062336;28;20291;-71
2023/08/30 15:23:37;;;;;;;;;;;24.60;57.70;;;;;;5056101;28;19979;-70
2023/08/30 15:26:04;;;;;;;;;;;24.60;58.00;;;;;;5062529;28;20015;-70
2023/08/30 15:28:32;;;;;;;;;;;24.60;58.60;;;;;;5063236;28;19999;-70
2023/08/30 15:30:59;;;;;;;;;;;24.60;58.70;;;;;;5049380;28;19991;-78
2023/08/30 15:33:26;;;;;;;;;;;24.60;58.80;;;;;;5033680;28;19980;-80
2023/08/30 15:35:54;;;;;;;;;;;24.60;58.90;;;;;;5040927;28;19980;-75
2023/08/30 15:38:20;;;;;;;;;;;24.60;59.10;;;;;;5034521;28;19995;-75
2023/08/30 15:40:49;;;;;;;;;;;24.50;59.00;;;;;;5027721;28;20019;-76
2023/08/30 15:43:16;;;;;;;;;;;24.50;59.20;;;;;;5024005;28;20118;-76
2023/08/30 15:45:44;;;;;;;;;;;24.50;59.40;;;;;;5021115;28;20110;-75
2023/08/30 15:48:10;;;;;;;;;;;24.50;59.20;;;;;;5025453;28;19979;-75
2023/08/30 15:50:37;;;;;;;;;;;24.50;59.30;;;;;;5020267;28;19976;-75
2023/08/30 16:06:42;;;;;;;;;;;24.50;58.90;;;;;;5071921;27;19995;-80
2023/08/30 16:09:08;;;;;;;;;;;24.40;58.80;;;;;;5060028;28;19983;-80
2023/08/30 16:11:35;;;;;;;;;;;24.40;59.00;;;;;;5056935;28;19984;-80
2023/08/30 16:14:02;;;;;;;;;;;24.40;58.80;;;;;;5053982;28;19982;-81
2023/08/30 16:16:29;;;;;;;;;;;24.40;59.10;;;;;;5039348;28;20002;-82
2023/08/30 16:18:55;;;;;;;;;;;24.40;59.30;;;;;;5031936;28;20071;-78
2023/08/30 16:21:22;;;;;;;;;;;24.30;59.20;;;;;;5033853;28;20229;-81
2023/08/30 16:23:49;;;;;;;;;;;24.30;59.80;;;;;;5036074;28;19981;-81
2023/08/30 16:26:16;;;;;;;;;;;24.30;59.20;;;;;;5031929;28;20045;-80
2023/08/30 16:28:43;;;;;;;;;;;24.30;59.10;;;;;;5032353;28;19984;-81